createdAt,value
2019-01-21T00:00:57.310Z,40.60
2019-01-21T00:01:57.293Z,40.00
2019-01-21T00:02:57.283Z,39.30
2019-01-21T00:03:57.271Z,36.90
2019-01-21T00:04:57.303Z,37.50
2019-01-21T00:05:57.251Z,37.10
2019-01-21T00:06:57.243Z,40.70
2019-01-21T00:07:57.228Z,43.70
2019-01-21T00:08:57.217Z,38.60
2019-01-21T00:09:57.296Z,38.70
2019-01-21T00:10:57.199Z,42.70
2019-01-21T00:11:57.187Z,39.40
2019-01-21T00:12:57.181Z,41.40
2019-01-21T00:13:57.164Z,37.50
2019-01-21T00:14:57.155Z,41.30
2019-01-21T00:15:57.145Z,36.80
2019-01-21T00:16:57.178Z,38.20
2019-01-21T00:17:57.122Z,37.00
2019-01-21T00:18:57.111Z,38.50
2019-01-21T00:19:57.096Z,37.10
2019-01-21T00:20:57.087Z,41.50
2019-01-21T00:21:57.081Z,37.40
2019-01-21T00:22:57.066Z,38.30
2019-01-21T00:23:57.062Z,37.00
2019-01-21T00:24:57.040Z,37.10
2019-01-21T00:25:57.035Z,36.10
2019-01-21T00:26:57.025Z,38.20
2019-01-21T00:27:57.018Z,38.00
2019-01-21T00:28:57.002Z,36.50
2019-01-21T00:29:56.995Z,38.50
2019-01-21T00:30:56.984Z,34.60
2019-01-21T00:31:56.973Z,39.50
2019-01-21T00:32:56.961Z,34.50
2019-01-21T00:33:56.949Z,39.10
2019-01-21T00:34:56.944Z,35.50
2019-01-21T00:35:56.927Z,34.10
2019-01-21T00:37:03.322Z,38.80
2019-01-21T00:37:57.920Z,36.70
2019-01-21T00:38:56.964Z,36.40
2019-01-21T00:39:56.888Z,37.50
2019-01-21T00:40:56.882Z,39.30
2019-01-21T00:41:56.897Z,33.80
2019-01-21T00:42:56.852Z,37.10
2019-01-21T00:43:56.841Z,37.40
2019-01-21T00:44:56.834Z,38.50
2019-01-21T00:45:56.818Z,37.70
2019-01-21T00:46:56.828Z,36.00
2019-01-21T00:47:56.799Z,38.90
2019-01-21T00:48:56.785Z,35.60
2019-01-21T00:49:56.778Z,39.80
2019-01-21T00:50:56.761Z,36.70
2019-01-21T00:51:56.775Z,37.80
2019-01-21T00:52:56.739Z,37.10
2019-01-21T00:53:56.734Z,39.50
2019-01-21T00:54:56.735Z,39.50
2019-01-21T00:55:56.712Z,40.60
2019-01-21T00:56:56.699Z,44.60
2019-01-21T00:57:56.700Z,44.00
2019-01-21T00:58:56.683Z,37.80
2019-01-21T00:59:56.670Z,39.10
2019-01-21T01:00:56.654Z,38.30
2019-01-21T01:01:56.652Z,36.90
2019-01-21T01:02:56.637Z,37.90
2019-01-21T01:03:56.644Z,39.40
2019-01-21T01:04:56.611Z,36.90
2019-01-21T01:05:56.603Z,39.40
2019-01-21T01:06:56.591Z,35.40
2019-01-21T01:07:56.587Z,35.80
2019-01-21T01:08:56.576Z,35.80
2019-01-21T01:09:56.581Z,37.70
2019-01-21T01:10:56.561Z,35.20
2019-01-21T01:11:56.591Z,33.40
2019-01-21T01:12:56.525Z,35.40
2019-01-21T01:13:56.521Z,37.80
2019-01-21T01:14:56.517Z,35.50
2019-01-21T01:15:56.507Z,40.10
2019-01-21T01:16:57.307Z,34.50
2019-01-21T01:17:56.476Z,36.60
2019-01-21T01:18:56.477Z,37.30
2019-01-21T01:19:56.455Z,35.20
2019-01-21T01:20:56.454Z,37.30
2019-01-21T01:21:56.434Z,35.90
2019-01-21T01:22:56.432Z,36.30
2019-01-21T01:23:56.424Z,44.70
2019-01-21T01:24:56.397Z,37.50
2019-01-21T01:25:56.393Z,34.80
2019-01-21T01:26:56.402Z,33.70
2019-01-21T01:27:56.364Z,37.90
2019-01-21T01:28:56.368Z,39.00
2019-01-21T01:29:56.346Z,35.00
2019-01-21T01:30:56.336Z,37.90
2019-01-21T01:31:56.330Z,37.00
2019-01-21T01:32:56.318Z,36.80
2019-01-21T01:33:56.341Z,39.30
2019-01-21T01:34:56.293Z,37.60
2019-01-21T01:35:56.301Z,38.60
2019-01-21T01:36:56.271Z,42.00
2019-01-21T01:37:56.270Z,39.30
2019-01-21T01:38:56.259Z,38.50
2019-01-21T01:39:56.240Z,36.90
2019-01-21T01:40:56.236Z,36.40
2019-01-21T01:41:56.213Z,39.30
2019-01-21T01:42:56.212Z,36.70
2019-01-21T01:43:56.204Z,38.10
2019-01-21T01:44:56.184Z,37.10
2019-01-21T01:45:56.177Z,35.20
2019-01-21T01:46:56.167Z,36.00
2019-01-21T01:47:56.165Z,36.90
2019-01-21T01:48:56.153Z,37.60
2019-01-21T01:49:56.157Z,38.40
2019-01-21T01:50:56.139Z,39.00
2019-01-21T01:51:56.137Z,38.00
2019-01-21T01:52:56.123Z,42.00
2019-01-21T01:53:56.092Z,39.40
2019-01-21T01:54:56.098Z,39.30
2019-01-21T01:55:56.104Z,41.70
2019-01-21T01:56:56.081Z,40.70
2019-01-21T01:57:56.090Z,36.10
2019-01-21T01:58:56.033Z,41.60
2019-01-21T01:59:56.032Z,41.00
2019-01-21T02:00:56.013Z,39.80
2019-01-21T02:01:56.010Z,39.20
2019-01-21T02:02:56.001Z,40.10
2019-01-21T02:03:55.986Z,39.20
2019-01-21T02:04:55.980Z,42.40
2019-01-21T02:05:55.984Z,44.40
2019-01-21T02:06:55.955Z,40.40
2019-01-21T02:07:55.950Z,41.00
2019-01-21T02:08:55.929Z,38.40
2019-01-21T02:09:55.918Z,40.90
2019-01-21T02:10:55.908Z,38.60
2019-01-21T02:11:55.897Z,39.90
2019-01-21T02:12:55.890Z,42.30
2019-01-21T02:13:55.891Z,41.20
2019-01-21T02:14:55.862Z,40.60
2019-01-21T02:15:55.852Z,40.90
2019-01-21T02:16:55.846Z,45.10
2019-01-21T02:17:55.832Z,44.00
2019-01-21T02:18:55.828Z,43.00
2019-01-21T02:19:55.810Z,42.30
2019-01-21T02:20:55.805Z,43.40
2019-01-21T02:21:55.781Z,40.30
2019-01-21T02:22:55.781Z,38.60
2019-01-21T02:23:55.818Z,37.40
2019-01-21T02:24:55.757Z,39.10
2019-01-21T02:25:55.750Z,44.00
2019-01-21T02:26:55.744Z,45.20
2019-01-21T02:27:55.723Z,42.30
2019-01-21T02:28:55.714Z,41.50
2019-01-21T02:29:55.721Z,39.80
2019-01-21T02:30:55.690Z,43.50
2019-01-21T02:31:55.679Z,43.80
2019-01-21T02:32:55.712Z,44.40
2019-01-21T02:33:55.659Z,40.70
2019-01-21T02:34:55.666Z,41.20
2019-01-21T02:35:55.651Z,42.10
2019-01-21T02:36:55.622Z,39.80
2019-01-21T02:37:55.647Z,43.70
2019-01-21T02:38:55.604Z,42.00
2019-01-21T02:39:55.604Z,43.50
2019-01-21T02:40:55.592Z,46.90
2019-01-21T02:41:55.570Z,41.00
2019-01-21T02:42:55.562Z,43.70
2019-01-21T02:43:55.543Z,45.10
2019-01-21T02:44:55.537Z,43.00
2019-01-21T02:45:55.525Z,45.30
2019-01-21T02:46:55.522Z,45.00
2019-01-21T02:47:59.962Z,45.00
2019-01-21T02:48:55.495Z,47.60
2019-01-21T02:49:55.485Z,48.30
2019-01-21T02:50:55.470Z,44.10
2019-01-21T02:51:55.457Z,48.90
2019-01-21T02:52:55.452Z,47.00
2019-01-21T02:53:55.440Z,45.00
2019-01-21T02:54:55.436Z,44.30
2019-01-21T02:55:55.422Z,40.10
2019-01-21T02:56:55.411Z,42.10
2019-01-21T02:57:55.402Z,43.60
2019-01-21T02:58:55.399Z,40.50
2019-01-21T02:59:55.376Z,41.80
2019-01-21T03:00:55.396Z,36.80
2019-01-21T03:01:55.360Z,46.20
2019-01-21T03:02:55.446Z,39.90
2019-01-21T03:03:55.330Z,40.80
2019-01-21T03:04:55.326Z,41.50
2019-01-21T03:05:55.314Z,39.40
2019-01-21T03:06:55.303Z,42.60
2019-01-21T03:07:55.297Z,42.90
2019-01-21T03:08:55.280Z,43.70
2019-01-21T03:09:55.269Z,45.90
2019-01-21T03:10:55.832Z,43.80
2019-01-21T03:11:55.247Z,45.90
2019-01-21T03:12:55.253Z,41.30
2019-01-21T03:13:55.232Z,45.90
2019-01-21T03:14:55.215Z,44.00
2019-01-21T03:15:55.199Z,42.10
2019-01-21T03:16:55.203Z,42.60
2019-01-21T03:17:55.188Z,43.50
2019-01-21T03:18:55.184Z,43.10
2019-01-21T03:19:55.167Z,42.90
2019-01-21T03:20:55.153Z,41.50
2019-01-21T03:21:55.134Z,45.50
2019-01-21T03:22:55.148Z,44.70
2019-01-21T03:23:55.132Z,49.10
2019-01-21T03:24:55.124Z,47.10
2019-01-21T03:25:55.097Z,41.70
2019-01-21T03:26:55.083Z,46.10
2019-01-21T03:27:55.112Z,40.90
2019-01-21T03:28:55.068Z,42.50
2019-01-21T03:29:55.061Z,41.20
2019-01-21T03:30:55.077Z,43.50
2019-01-21T03:31:55.037Z,43.50
2019-01-21T03:32:55.045Z,42.10
2019-01-21T03:33:55.017Z,44.10
2019-01-21T03:34:54.999Z,43.00
2019-01-21T03:35:54.991Z,43.10
2019-01-21T03:36:54.973Z,45.50
2019-01-21T03:37:54.964Z,44.50
2019-01-21T03:38:54.959Z,46.80
2019-01-21T03:39:54.949Z,46.00
2019-01-21T03:40:54.934Z,45.20
2019-01-21T03:41:54.932Z,44.50
2019-01-21T03:42:54.906Z,43.80
2019-01-21T03:43:54.894Z,44.40
2019-01-21T03:44:54.896Z,45.50
2019-01-21T03:45:54.874Z,44.00
2019-01-21T03:46:54.874Z,42.20
2019-01-21T03:47:55.010Z,45.00
2019-01-21T03:48:54.845Z,45.60
2019-01-21T03:49:54.829Z,39.10
2019-01-21T03:50:54.822Z,41.40
2019-01-21T03:51:54.810Z,47.10
2019-01-21T03:52:54.801Z,44.50
2019-01-21T03:53:54.783Z,48.50
2019-01-21T03:54:54.771Z,46.80
2019-01-21T03:55:54.758Z,47.40
2019-01-21T03:56:54.758Z,47.40
2019-01-21T03:57:54.748Z,44.10
2019-01-21T03:58:54.749Z,49.50
2019-01-21T03:59:54.719Z,49.10
2019-01-21T04:00:54.711Z,47.50
2019-01-21T04:01:54.703Z,49.10
2019-01-21T04:02:54.688Z,46.90
2019-01-21T04:03:54.690Z,45.70
2019-01-21T04:04:54.665Z,50.70
2019-01-21T04:05:54.664Z,45.90
2019-01-21T04:06:54.643Z,48.60
2019-01-21T04:07:54.721Z,49.50
2019-01-21T04:08:54.625Z,49.30
2019-01-21T04:09:54.622Z,50.00
2019-01-21T04:10:54.596Z,51.20
2019-01-21T04:11:54.590Z,46.70
2019-01-21T04:12:54.586Z,54.80
2019-01-21T04:13:54.574Z,59.70
2019-01-21T04:14:54.560Z,52.50
2019-01-21T04:15:54.558Z,50.10
2019-01-21T04:16:54.531Z,51.70
2019-01-21T04:17:54.587Z,47.70
2019-01-21T04:18:54.521Z,47.10
2019-01-21T04:19:54.499Z,52.40
2019-01-21T04:20:54.511Z,50.10
2019-01-21T04:21:54.491Z,48.60
2019-01-21T04:22:54.507Z,47.50
2019-01-21T04:23:54.462Z,49.30
2019-01-21T04:24:54.448Z,47.00
2019-01-21T04:25:54.578Z,46.40
2019-01-21T04:26:54.425Z,46.90
2019-01-21T04:27:54.417Z,47.70
2019-01-21T04:28:54.402Z,44.90
2019-01-21T04:29:54.392Z,43.60
2019-01-21T04:30:54.382Z,45.00
2019-01-21T04:31:54.380Z,44.40
2019-01-21T04:32:54.358Z,45.40
2019-01-21T04:33:54.357Z,45.30
2019-01-21T04:34:54.332Z,50.50
2019-01-21T04:35:54.332Z,46.70
2019-01-21T04:36:54.347Z,41.90
2019-01-21T04:37:54.321Z,47.40
2019-01-21T04:38:54.296Z,46.00
2019-01-21T04:39:54.295Z,45.30
2019-01-21T04:40:54.270Z,44.30
2019-01-21T04:41:54.273Z,45.80
2019-01-21T04:42:54.248Z,45.20
2019-01-21T04:43:54.238Z,49.90
2019-01-21T04:44:54.229Z,44.00
2019-01-21T04:45:54.216Z,48.70
2019-01-21T04:46:54.209Z,47.50
2019-01-21T04:47:54.207Z,47.30
2019-01-21T04:48:54.184Z,42.60
2019-01-21T04:49:54.173Z,49.40
2019-01-21T04:50:54.162Z,47.80
2019-01-21T04:51:54.156Z,47.90
2019-01-21T04:52:54.144Z,51.30
2019-01-21T04:53:54.137Z,48.80
2019-01-21T04:54:54.119Z,47.90
2019-01-21T04:55:54.107Z,49.70
2019-01-21T04:56:54.102Z,52.60
2019-01-21T04:57:54.086Z,53.40
2019-01-21T04:58:54.085Z,53.40
2019-01-21T04:59:54.066Z,48.60
2019-01-21T05:00:54.054Z,51.50
2019-01-21T05:01:54.049Z,50.20
2019-01-21T05:02:54.057Z,45.80
2019-01-21T05:03:54.179Z,51.90
2019-01-21T05:04:54.013Z,45.70
2019-01-21T05:05:54.015Z,48.10
2019-01-21T05:06:53.990Z,47.30
2019-01-21T05:07:53.983Z,45.50
2019-01-21T05:08:54.019Z,50.20
2019-01-21T05:09:53.951Z,47.10
2019-01-21T05:10:53.955Z,45.90
2019-01-21T05:11:53.950Z,45.90
2019-01-21T05:12:53.923Z,45.90
2019-01-21T05:13:53.921Z,46.70
2019-01-21T05:14:53.902Z,49.90
2019-01-21T05:15:53.886Z,45.50
2019-01-21T05:16:53.882Z,48.40
2019-01-21T05:17:53.870Z,46.20
2019-01-21T05:18:53.861Z,43.60
2019-01-21T05:19:53.866Z,50.60
2019-01-21T05:20:53.830Z,48.00
2019-01-21T05:21:53.836Z,48.60
2019-01-21T05:22:53.820Z,48.60
2019-01-21T05:23:53.803Z,47.80
2019-01-21T05:24:53.787Z,53.20
2019-01-21T05:25:53.816Z,47.00
2019-01-21T05:26:53.764Z,51.10
2019-01-21T05:27:53.766Z,43.30
2019-01-21T05:28:53.751Z,49.20
2019-01-21T05:29:53.736Z,48.40
2019-01-21T05:30:53.773Z,46.80
2019-01-21T05:31:53.706Z,48.30
2019-01-21T05:32:53.700Z,49.70
2019-01-21T05:33:53.683Z,49.70
2019-01-21T05:34:53.674Z,49.50
2019-01-21T05:35:53.663Z,47.10
2019-01-21T05:36:53.651Z,47.50
2019-01-21T05:37:53.643Z,47.40
2019-01-21T05:38:53.639Z,46.40
2019-01-21T05:39:53.620Z,48.00
2019-01-21T05:40:53.615Z,46.90
2019-01-21T05:41:53.593Z,45.50
2019-01-21T05:42:53.597Z,48.40
2019-01-21T05:43:53.580Z,45.90
2019-01-21T05:44:53.561Z,49.20
2019-01-21T05:45:53.555Z,47.20
2019-01-21T05:46:53.547Z,50.10
2019-01-21T05:47:53.537Z,45.30
2019-01-21T05:48:53.531Z,46.20
2019-01-21T05:49:53.514Z,52.40
2019-01-21T05:50:53.498Z,47.80
2019-01-21T05:51:53.500Z,44.40
2019-01-21T05:52:53.483Z,46.60
2019-01-21T05:53:53.470Z,41.50
2019-01-21T05:54:53.454Z,48.00
2019-01-21T05:55:53.449Z,45.10
2019-01-21T05:56:53.429Z,43.60
2019-01-21T05:57:53.418Z,46.90
2019-01-21T05:58:53.411Z,47.00
2019-01-21T05:59:53.405Z,47.20
2019-01-21T06:00:53.404Z,47.10
2019-01-21T06:01:53.393Z,47.30
2019-01-21T06:02:53.367Z,46.60
2019-01-21T06:03:53.357Z,43.90
2019-01-21T06:04:53.349Z,44.60
2019-01-21T06:05:53.337Z,47.80
2019-01-21T06:06:53.337Z,45.90
2019-01-21T06:07:53.315Z,48.40
2019-01-21T06:08:53.302Z,51.10
2019-01-21T06:09:53.292Z,52.30
2019-01-21T06:10:53.281Z,50.00
2019-01-21T06:11:53.271Z,52.50
2019-01-21T06:12:53.265Z,47.20
2019-01-21T06:13:53.250Z,49.50
2019-01-21T06:14:53.238Z,46.40
2019-01-21T06:15:53.235Z,48.20
2019-01-21T06:16:53.222Z,47.60
2019-01-21T06:17:53.230Z,51.60
2019-01-21T06:18:57.455Z,47.10
2019-01-21T06:19:53.182Z,47.40
2019-01-21T06:20:53.195Z,48.40
2019-01-21T06:21:53.162Z,48.90
2019-01-21T06:22:53.159Z,53.10
2019-01-21T06:23:53.150Z,44.70
2019-01-21T06:24:53.122Z,46.30
2019-01-21T06:25:53.114Z,46.00
2019-01-21T06:26:53.098Z,47.70
2019-01-21T06:27:53.092Z,46.00
2019-01-21T06:28:53.097Z,48.90
2019-01-21T06:29:53.068Z,52.70
2019-01-21T06:30:53.058Z,51.30
2019-01-21T06:31:53.049Z,53.40
2019-01-21T06:32:53.033Z,54.80
2019-01-21T06:33:53.028Z,53.70
2019-01-21T06:34:53.015Z,51.10
2019-01-21T06:35:52.999Z,53.00
2019-01-21T06:36:52.995Z,54.00
2019-01-21T06:37:52.980Z,49.90
2019-01-21T06:38:52.968Z,51.80
2019-01-21T06:39:52.965Z,52.00
2019-01-21T06:40:52.948Z,49.60
2019-01-21T06:41:52.957Z,52.80
2019-01-21T06:42:52.929Z,49.00
2019-01-21T06:43:52.913Z,51.40
2019-01-21T06:44:52.905Z,45.00
2019-01-21T06:45:52.914Z,44.60
2019-01-21T06:46:52.881Z,44.60
2019-01-21T06:47:52.874Z,45.70
2019-01-21T06:48:52.853Z,48.00
2019-01-21T06:49:52.845Z,47.40
2019-01-21T06:50:52.841Z,46.00
2019-01-21T06:51:52.821Z,48.20
2019-01-21T06:52:52.818Z,47.80
2019-01-21T06:53:52.804Z,48.40
2019-01-21T06:54:52.788Z,49.80
2019-01-21T06:55:52.783Z,51.10
2019-01-21T06:56:52.779Z,50.50
2019-01-21T06:57:52.768Z,53.70
2019-01-21T06:58:52.777Z,50.70
2019-01-21T06:59:52.736Z,53.30
2019-01-21T07:00:52.723Z,50.10
2019-01-21T07:01:52.714Z,50.20
2019-01-21T07:02:52.708Z,53.00
2019-01-21T07:03:52.699Z,55.40
2019-01-21T07:04:52.681Z,54.00
2019-01-21T07:05:52.673Z,49.00
2019-01-21T07:06:52.679Z,51.30
2019-01-21T07:07:52.641Z,48.20
2019-01-21T07:08:52.634Z,49.10
2019-01-21T07:09:52.618Z,49.60
2019-01-21T07:10:52.622Z,53.00
2019-01-21T07:11:52.601Z,53.40
2019-01-21T07:12:52.591Z,54.70
2019-01-21T07:13:52.579Z,53.60
2019-01-21T07:14:52.570Z,54.40
2019-01-21T07:15:52.554Z,50.70
2019-01-21T07:16:52.552Z,53.90
2019-01-21T07:17:52.534Z,51.80
2019-01-21T07:18:52.524Z,53.70
2019-01-21T07:19:52.513Z,50.30
2019-01-21T07:20:52.496Z,56.10
2019-01-21T07:21:52.489Z,48.40
2019-01-21T07:22:52.478Z,50.50
2019-01-21T07:23:53.116Z,50.60
2019-01-21T07:24:52.480Z,52.40
2019-01-21T07:25:52.453Z,57.60
2019-01-21T07:26:52.435Z,58.90
2019-01-21T07:27:52.417Z,61.60
2019-01-21T07:28:52.409Z,56.60
2019-01-21T07:29:52.402Z,53.00
2019-01-21T07:30:52.400Z,52.00
2019-01-21T07:31:52.433Z,56.50
2019-01-21T07:32:52.366Z,56.30
2019-01-21T07:33:52.359Z,57.10
2019-01-21T07:34:52.348Z,60.20
2019-01-21T07:35:52.336Z,57.70
2019-01-21T07:36:52.321Z,56.00
2019-01-21T07:37:52.310Z,55.90
2019-01-21T07:38:52.297Z,54.80
2019-01-21T07:39:52.285Z,53.40
2019-01-21T07:40:52.274Z,50.70
2019-01-21T07:41:52.266Z,54.80
2019-01-21T07:42:52.257Z,59.00
2019-01-21T07:43:52.241Z,59.90
2019-01-21T07:44:52.234Z,57.80
2019-01-21T07:45:52.220Z,53.90
2019-01-21T07:46:52.206Z,55.40
2019-01-21T07:47:52.194Z,55.60
2019-01-21T07:48:52.189Z,56.20
2019-01-21T07:49:52.177Z,52.70
2019-01-21T07:50:52.199Z,54.40
2019-01-21T07:51:52.155Z,59.10
2019-01-21T07:52:52.142Z,55.60
2019-01-21T07:53:52.130Z,50.50
2019-01-21T07:54:52.116Z,55.50
2019-01-21T07:55:52.109Z,57.00
2019-01-21T07:56:52.097Z,52.70
2019-01-21T07:57:52.096Z,52.20
2019-01-21T07:58:52.074Z,55.80
2019-01-21T07:59:52.066Z,56.30
2019-01-21T08:00:52.056Z,61.10
2019-01-21T08:01:52.041Z,58.10
2019-01-21T08:02:52.028Z,58.70
2019-01-21T08:03:52.012Z,57.50
2019-01-21T08:04:52.014Z,57.40
2019-01-21T08:05:52.002Z,62.60
2019-01-21T08:06:51.985Z,60.70
2019-01-21T08:07:51.978Z,63.30
2019-01-21T08:08:51.958Z,61.40
2019-01-21T08:09:51.956Z,64.40
2019-01-21T08:10:51.943Z,67.50
2019-01-21T08:11:52.805Z,66.00
2019-01-21T08:12:51.924Z,62.30
2019-01-21T08:13:51.919Z,66.70
2019-01-21T08:14:51.899Z,68.90
2019-01-21T08:15:51.891Z,64.00
2019-01-21T08:16:51.874Z,68.00
2019-01-21T08:17:52.620Z,65.60
2019-01-21T08:18:51.856Z,64.80
2019-01-21T08:19:51.840Z,62.30
2019-01-21T08:20:51.839Z,67.50
2019-01-21T08:21:51.829Z,65.40
2019-01-21T08:22:51.812Z,64.20
2019-01-21T08:23:51.809Z,60.60
2019-01-21T08:24:51.789Z,64.00
2019-01-21T08:25:51.779Z,67.60
2019-01-21T08:26:51.773Z,63.50
2019-01-21T08:27:51.788Z,62.70
2019-01-21T08:28:51.761Z,65.50
2019-01-21T08:29:51.737Z,64.70
2019-01-21T08:30:51.723Z,62.50
2019-01-21T08:31:51.715Z,62.20
2019-01-21T08:32:51.703Z,63.10
2019-01-21T08:33:51.701Z,61.30
2019-01-21T08:34:51.683Z,62.10
2019-01-21T08:35:51.667Z,59.70
2019-01-21T08:36:51.659Z,60.20
2019-01-21T08:37:51.649Z,61.10
2019-01-21T08:38:51.640Z,59.70
2019-01-21T08:39:51.628Z,61.60
2019-01-21T08:40:51.613Z,60.90
2019-01-21T08:41:51.611Z,62.30
2019-01-21T08:42:51.592Z,63.70
2019-01-21T08:43:51.581Z,62.80
2019-01-21T08:44:51.576Z,62.90
2019-01-21T08:45:51.561Z,62.90
2019-01-21T08:46:51.580Z,64.60
2019-01-21T08:47:51.532Z,63.20
2019-01-21T08:48:51.522Z,65.30
2019-01-21T08:49:51.524Z,63.90
2019-01-21T08:50:51.510Z,63.10
2019-01-21T08:51:51.495Z,64.00
2019-01-21T08:52:51.582Z,60.60
2019-01-21T08:53:51.467Z,66.50
2019-01-21T08:54:51.465Z,64.20
2019-01-21T08:55:51.446Z,65.70
2019-01-21T08:56:51.438Z,61.80
2019-01-21T08:57:51.420Z,67.50
2019-01-21T08:58:51.415Z,63.90
2019-01-21T08:59:51.401Z,63.90
2019-01-21T09:00:51.388Z,60.70
2019-01-21T09:01:51.373Z,61.20
2019-01-21T09:02:51.366Z,65.30
2019-01-21T09:03:51.356Z,64.10
2019-01-21T09:04:51.345Z,62.60
2019-01-21T09:05:51.332Z,61.90
2019-01-21T09:06:51.322Z,60.20
2019-01-21T09:07:51.326Z,64.40
2019-01-21T09:08:51.306Z,66.00
2019-01-21T09:09:51.305Z,63.90
2019-01-21T09:10:51.277Z,61.10
2019-01-21T09:11:51.279Z,58.90
2019-01-21T09:12:51.254Z,60.70
2019-01-21T09:13:51.246Z,59.70
2019-01-21T09:14:51.233Z,62.30
2019-01-21T09:15:51.218Z,66.50
2019-01-21T09:16:51.209Z,66.80
2019-01-21T09:17:51.206Z,65.00
2019-01-21T09:18:51.190Z,61.90
2019-01-21T09:19:51.176Z,61.70
2019-01-21T09:20:51.205Z,61.60
2019-01-21T09:21:51.162Z,59.90
2019-01-21T09:22:51.146Z,63.80
2019-01-21T09:23:51.147Z,66.90
2019-01-21T09:24:51.117Z,64.40
2019-01-21T09:25:51.110Z,67.10
2019-01-21T09:26:51.112Z,64.20
2019-01-21T09:27:51.124Z,71.20
2019-01-21T09:28:51.069Z,68.60
2019-01-21T09:29:51.061Z,65.30
2019-01-21T09:30:51.054Z,62.70
2019-01-21T09:31:51.058Z,61.30
2019-01-21T09:32:51.038Z,61.00
2019-01-21T09:33:51.022Z,61.60
2019-01-21T09:34:51.005Z,60.30
2019-01-21T09:35:51.005Z,63.00
2019-01-21T09:36:51.029Z,56.90
2019-01-21T09:37:50.986Z,58.30
2019-01-21T09:38:50.963Z,59.40
2019-01-21T09:39:50.952Z,62.30
2019-01-21T09:40:50.950Z,67.50
2019-01-21T09:41:50.938Z,67.20
2019-01-21T09:42:50.923Z,63.80
2019-01-21T09:43:50.931Z,68.70
2019-01-21T09:44:50.895Z,63.60
2019-01-21T09:45:50.948Z,67.00
2019-01-21T09:46:50.874Z,69.40
2019-01-21T09:47:50.863Z,69.60
2019-01-21T09:48:50.861Z,64.10
2019-01-21T09:49:50.839Z,67.00
2019-01-21T09:50:50.830Z,66.30
2019-01-21T09:51:50.821Z,65.10
2019-01-21T09:52:50.805Z,62.90
2019-01-21T09:53:50.791Z,66.90
2019-01-21T09:54:50.803Z,67.30
2019-01-21T09:55:50.773Z,64.50
2019-01-21T09:56:50.758Z,65.20
2019-01-21T09:57:50.751Z,63.50
2019-01-21T09:58:50.740Z,66.10
2019-01-21T09:59:50.725Z,64.50
2019-01-21T10:00:50.716Z,62.10
2019-01-21T10:01:50.707Z,59.60
2019-01-21T10:02:50.691Z,64.40
2019-01-21T10:03:50.688Z,61.80
2019-01-21T10:04:51.023Z,60.40
2019-01-21T10:05:50.658Z,60.40
2019-01-21T10:06:50.651Z,64.60
2019-01-21T10:07:50.643Z,62.40
2019-01-21T10:08:50.635Z,58.70
2019-01-21T10:09:55.289Z,61.20
2019-01-21T10:10:50.617Z,61.20
2019-01-21T10:11:50.598Z,59.80
2019-01-21T10:12:50.597Z,58.30
2019-01-21T10:13:50.570Z,60.30
2019-01-21T10:14:50.570Z,58.40
2019-01-21T10:15:50.562Z,65.20
2019-01-21T10:16:50.563Z,64.80
2019-01-21T10:17:50.528Z,63.30
2019-01-21T10:18:50.525Z,64.50
2019-01-21T10:19:52.185Z,63.70
2019-01-21T10:20:50.500Z,67.80
2019-01-21T10:21:50.488Z,66.00
2019-01-21T10:22:50.477Z,65.90
2019-01-21T10:23:50.474Z,69.10
2019-01-21T10:24:50.458Z,70.60
2019-01-21T10:25:50.443Z,71.70
2019-01-21T10:26:50.442Z,66.30
2019-01-21T10:27:50.425Z,64.20
2019-01-21T10:28:50.416Z,67.80
2019-01-21T10:29:50.401Z,66.90
2019-01-21T10:30:50.391Z,61.30
2019-01-21T10:31:50.378Z,66.50
2019-01-21T10:32:50.371Z,62.80
2019-01-21T10:33:50.360Z,59.50
2019-01-21T10:34:50.347Z,64.00
2019-01-21T10:35:50.339Z,57.30
2019-01-21T10:36:50.328Z,61.60
2019-01-21T10:37:50.349Z,63.80
2019-01-21T10:38:50.305Z,63.90
2019-01-21T10:39:50.308Z,63.50
2019-01-21T10:40:50.282Z,64.70
2019-01-21T10:41:50.275Z,61.70
2019-01-21T10:42:50.260Z,65.90
2019-01-21T10:43:50.248Z,63.60
2019-01-21T10:44:50.245Z,64.80
2019-01-21T10:45:50.229Z,66.00
2019-01-21T10:46:50.221Z,67.90
2019-01-21T10:47:50.219Z,63.30
2019-01-21T10:48:50.198Z,71.50
2019-01-21T10:49:50.189Z,66.90
2019-01-21T10:50:50.180Z,67.30
2019-01-21T10:51:50.171Z,67.70
2019-01-21T10:52:50.159Z,68.60
2019-01-21T10:53:50.149Z,66.80
2019-01-21T10:54:50.130Z,71.10
2019-01-21T10:55:50.122Z,66.40
2019-01-21T10:56:50.118Z,70.90
2019-01-21T10:57:50.117Z,72.60
2019-01-21T10:58:50.096Z,71.30
2019-01-21T10:59:50.106Z,68.90
2019-01-21T11:00:50.072Z,69.70
2019-01-21T11:01:50.072Z,70.30
2019-01-21T11:02:50.051Z,71.80
2019-01-21T11:03:50.036Z,69.70
2019-01-21T11:04:50.034Z,72.70
2019-01-21T11:05:50.019Z,71.90
2019-01-21T11:06:50.006Z,68.40
2019-01-21T11:07:49.994Z,66.40
2019-01-21T11:08:49.985Z,68.70
2019-01-21T11:09:49.975Z,72.90
2019-01-21T11:10:49.969Z,71.50
2019-01-21T11:11:53.928Z,69.30
2019-01-21T11:12:49.950Z,71.30
2019-01-21T11:13:49.927Z,71.10
2019-01-21T11:14:49.920Z,72.20
2019-01-21T11:15:49.911Z,70.30
2019-01-21T11:16:49.910Z,75.20
2019-01-21T11:17:49.892Z,70.50
2019-01-21T11:18:49.915Z,73.90
2019-01-21T11:19:49.875Z,77.20
2019-01-21T11:20:49.857Z,74.30
2019-01-21T11:21:49.853Z,70.00
2019-01-21T11:22:49.832Z,71.00
2019-01-21T11:23:49.819Z,67.90
2019-01-21T11:24:49.809Z,69.80
2019-01-21T11:25:49.805Z,67.40
2019-01-21T11:26:49.793Z,68.80
2019-01-21T11:27:49.780Z,70.90
2019-01-21T11:28:49.771Z,67.70
2019-01-21T11:29:49.759Z,67.10
2019-01-21T11:30:49.745Z,69.50
2019-01-21T11:31:49.731Z,70.20
2019-01-21T11:32:49.740Z,69.90
2019-01-21T11:33:49.715Z,71.00
2019-01-21T11:34:49.704Z,68.70
2019-01-21T11:35:49.696Z,70.00
2019-01-21T11:36:49.683Z,68.40
2019-01-21T11:37:49.671Z,68.00
2019-01-21T11:38:49.658Z,74.00
2019-01-21T11:39:49.668Z,75.40
2019-01-21T11:40:49.640Z,75.20
2019-01-21T11:41:49.648Z,68.30
2019-01-21T11:42:49.615Z,70.60
2019-01-21T11:43:49.611Z,74.20
2019-01-21T11:44:49.594Z,68.50
2019-01-21T11:45:49.583Z,68.50
2019-01-21T11:46:49.576Z,69.60
2019-01-21T11:47:49.580Z,70.50
2019-01-21T11:48:49.548Z,73.40
2019-01-21T11:49:49.548Z,80.40
2019-01-21T11:50:49.526Z,73.00
2019-01-21T11:51:49.522Z,84.90
2019-01-21T11:52:49.519Z,89.30
2019-01-21T11:53:49.500Z,82.50
2019-01-21T11:54:49.489Z,83.30
2019-01-21T11:55:49.477Z,76.40
2019-01-21T11:56:49.482Z,78.50
2019-01-21T11:57:49.453Z,76.00
2019-01-21T11:58:49.452Z,75.60
2019-01-21T11:59:49.464Z,77.30
2019-01-21T12:00:49.423Z,71.70
2019-01-21T12:01:49.407Z,76.70
2019-01-21T12:02:49.405Z,78.20
2019-01-21T12:03:49.396Z,68.30
2019-01-21T12:04:49.377Z,75.40
2019-01-21T12:05:49.366Z,74.10
2019-01-21T12:06:49.356Z,72.70
2019-01-21T12:07:49.351Z,72.80
2019-01-21T12:08:49.334Z,68.10
2019-01-21T12:09:49.321Z,70.80
2019-01-21T12:10:49.311Z,69.50
2019-01-21T12:11:49.307Z,74.00
2019-01-21T12:12:49.851Z,67.70
2019-01-21T12:13:49.280Z,70.30
2019-01-21T12:14:49.275Z,70.00
2019-01-21T12:15:49.257Z,67.10
2019-01-21T12:16:49.245Z,75.80
2019-01-21T12:17:49.235Z,69.80
2019-01-21T12:18:49.227Z,70.80
2019-01-21T12:19:49.222Z,68.40
2019-01-21T12:20:49.204Z,68.50
2019-01-21T12:21:49.189Z,68.20
2019-01-21T12:22:49.183Z,67.20
2019-01-21T12:23:49.209Z,68.90
2019-01-21T12:24:49.173Z,75.00
2019-01-21T12:25:49.162Z,69.40
2019-01-21T12:26:49.138Z,66.70
2019-01-21T12:27:49.126Z,70.20
2019-01-21T12:28:49.119Z,69.60
2019-01-21T12:29:49.105Z,61.80
2019-01-21T12:30:49.097Z,66.60
2019-01-21T12:31:49.087Z,69.00
2019-01-21T12:32:49.074Z,68.20
2019-01-21T12:33:49.062Z,66.10
2019-01-21T12:34:49.052Z,64.00
2019-01-21T12:35:49.036Z,66.80
2019-01-21T12:36:49.036Z,65.10
2019-01-21T12:37:49.022Z,63.80
2019-01-21T12:38:49.009Z,63.30
2019-01-21T12:39:49.002Z,68.90
2019-01-21T12:40:49.019Z,66.20
2019-01-21T12:41:48.974Z,63.50
2019-01-21T12:42:48.969Z,66.00
2019-01-21T12:43:48.964Z,64.50
2019-01-21T12:44:48.946Z,62.80
2019-01-21T12:45:48.932Z,64.70
2019-01-21T12:46:48.920Z,66.70
2019-01-21T12:47:48.920Z,65.80
2019-01-21T12:48:48.899Z,63.20
2019-01-21T12:49:48.902Z,61.70
2019-01-21T12:50:48.899Z,61.20
2019-01-21T12:51:48.882Z,63.50
2019-01-21T12:52:48.859Z,61.60